createdAt,value
2019-03-29T00:00:07.252Z,97.70
2019-03-29T00:01:07.294Z,97.80
2019-03-29T00:02:07.337Z,97.41
2019-03-29T00:03:07.378Z,97.80
2019-03-29T00:04:07.419Z,96.75
2019-03-29T00:05:07.461Z,97.32
2019-03-29T00:06:07.502Z,97.51
2019-03-29T00:07:07.541Z,97.32
2019-03-29T00:08:08.446Z,97.32
2019-03-29T00:09:07.620Z,97.22
2019-03-29T00:10:07.663Z,96.75
2019-03-29T00:11:07.707Z,97.89
2019-03-29T00:12:07.741Z,97.61
2019-03-29T00:13:07.783Z,97.32
2019-03-29T00:14:07.825Z,97.51
2019-03-29T00:15:08.063Z,97.32
2019-03-29T00:16:07.905Z,96.84
2019-03-29T00:17:07.945Z,97.22
2019-03-29T00:18:07.988Z,97.22
2019-03-29T00:19:08.030Z,97.41
2019-03-29T00:20:08.070Z,97.03
2019-03-29T00:21:08.118Z,96.56
2019-03-29T00:22:08.152Z,96.46
2019-03-29T00:23:08.189Z,96.65
2019-03-29T00:24:08.230Z,96.75
2019-03-29T00:25:08.278Z,96.75
2019-03-29T00:26:08.313Z,97.03
2019-03-29T00:27:08.350Z,97.03
2019-03-29T00:28:08.392Z,97.41
2019-03-29T00:29:08.434Z,96.84
2019-03-29T00:30:08.474Z,97.61
2019-03-29T00:31:08.522Z,97.70
2019-03-29T00:32:08.555Z,97.61
2019-03-29T00:33:08.596Z,97.61
2019-03-29T00:34:08.646Z,97.13
2019-03-29T00:35:08.677Z,97.03
2019-03-29T00:36:08.727Z,97.51
2019-03-29T00:37:08.761Z,97.80
2019-03-29T00:38:08.803Z,97.51
2019-03-29T00:39:08.848Z,97.89
2019-03-29T00:40:08.881Z,97.80
2019-03-29T00:41:08.923Z,97.51
2019-03-29T00:42:08.961Z,96.75
2019-03-29T00:43:09.131Z,97.03
2019-03-29T00:44:09.042Z,97.03
2019-03-29T00:45:09.091Z,96.75
2019-03-29T00:46:09.140Z,97.03
2019-03-29T00:47:09.165Z,96.75
2019-03-29T00:48:09.222Z,97.80
2019-03-29T00:49:09.244Z,97.70
2019-03-29T00:50:09.287Z,97.51
2019-03-29T00:51:09.333Z,97.70
2019-03-29T00:52:09.374Z,97.51
2019-03-29T00:53:09.437Z,97.99
2019-03-29T00:54:09.456Z,98.36
2019-03-29T00:55:09.492Z,98.08
2019-03-29T00:56:09.531Z,98.27
2019-03-29T00:57:09.581Z,97.99
2019-03-29T00:58:09.613Z,97.75
2019-03-29T00:59:09.652Z,98.27
2019-03-29T01:00:09.694Z,97.46
2019-03-29T01:01:09.745Z,97.51
2019-03-29T01:02:09.791Z,98.51
2019-03-29T01:03:10.905Z,97.56
2019-03-29T01:04:09.856Z,98.03
2019-03-29T01:05:09.904Z,97.56
2019-03-29T01:06:09.939Z,97.84
2019-03-29T01:07:09.977Z,98.70
2019-03-29T01:08:10.608Z,97.84
2019-03-29T01:09:10.064Z,98.22
2019-03-29T01:10:10.102Z,97.75
2019-03-29T01:11:10.152Z,98.13
2019-03-29T01:12:10.178Z,97.84
2019-03-29T01:13:10.220Z,98.13
2019-03-29T01:14:10.260Z,97.94
2019-03-29T01:15:10.302Z,97.36
2019-03-29T01:16:10.341Z,97.17
2019-03-29T01:17:10.383Z,98.51
2019-03-29T01:18:11.808Z,97.65
2019-03-29T01:19:10.470Z,97.36
2019-03-29T01:20:10.509Z,98.03
2019-03-29T01:21:10.549Z,98.03
2019-03-29T01:22:10.594Z,97.84
2019-03-29T01:23:10.633Z,97.56
2019-03-29T01:24:10.664Z,97.56
2019-03-29T01:25:10.709Z,97.27
2019-03-29T01:26:10.745Z,98.03
2019-03-29T01:27:10.799Z,97.65
2019-03-29T01:28:11.966Z,97.65
2019-03-29T01:29:10.869Z,97.75
2019-03-29T01:30:10.908Z,97.65
2019-03-29T01:31:10.947Z,97.75
2019-03-29T01:32:10.988Z,97.46
2019-03-29T01:33:11.030Z,97.46
2019-03-29T01:34:11.070Z,97.56
2019-03-29T01:35:11.110Z,97.75
2019-03-29T01:36:11.166Z,97.65
2019-03-29T01:37:11.190Z,97.65
2019-03-29T01:38:21.834Z,97.56
2019-03-29T01:39:11.274Z,97.56
2019-03-29T01:40:11.314Z,98.13
2019-03-29T01:41:11.370Z,97.84
2019-03-29T01:42:11.399Z,97.56
2019-03-29T01:43:11.436Z,97.46
2019-03-29T01:44:11.473Z,98.13
2019-03-29T01:45:11.518Z,98.13
2019-03-29T01:46:12.032Z,98.22
2019-03-29T01:47:11.696Z,97.94
2019-03-29T01:48:11.638Z,97.46
2019-03-29T01:49:11.676Z,97.46
2019-03-29T01:50:11.717Z,97.75
2019-03-29T01:51:11.757Z,97.56
2019-03-29T01:52:11.799Z,97.46
2019-03-29T01:53:12.048Z,97.65
2019-03-29T01:54:11.884Z,97.65
2019-03-29T01:55:11.921Z,97.65
2019-03-29T01:56:11.961Z,97.75
2019-03-29T01:57:12.003Z,98.03
2019-03-29T01:58:12.042Z,98.03
2019-03-29T01:59:12.081Z,98.32
2019-03-29T02:00:12.123Z,97.17
2019-03-29T02:01:12.168Z,98.03
2019-03-29T02:02:12.207Z,98.13
2019-03-29T02:03:13.019Z,98.03
2019-03-29T02:04:12.290Z,97.56
2019-03-29T02:05:12.334Z,98.32
2019-03-29T02:06:12.368Z,98.32
2019-03-29T02:07:12.408Z,97.94
2019-03-29T02:08:12.448Z,98.03
2019-03-29T02:09:12.489Z,98.03
2019-03-29T02:10:12.530Z,97.84
2019-03-29T02:11:12.571Z,98.13
2019-03-29T02:12:12.608Z,98.22
2019-03-29T02:13:12.651Z,98.60
2019-03-29T02:14:12.691Z,98.13
2019-03-29T02:15:12.730Z,98.03
2019-03-29T02:16:12.771Z,98.03
2019-03-29T02:17:12.813Z,98.32
2019-03-29T02:18:13.315Z,98.13
2019-03-29T02:19:12.891Z,98.32
2019-03-29T02:20:12.932Z,98.22
2019-03-29T02:21:12.973Z,98.13
2019-03-29T02:22:13.014Z,98.13
2019-03-29T02:23:13.054Z,98.13
2019-03-29T02:24:13.094Z,98.32
2019-03-29T02:25:13.151Z,98.13
2019-03-29T02:26:13.175Z,98.03
2019-03-29T02:27:13.218Z,97.56
2019-03-29T02:28:13.256Z,97.27
2019-03-29T02:29:13.297Z,98.03
2019-03-29T02:30:13.341Z,97.46
2019-03-29T02:31:13.389Z,98.03
2019-03-29T02:32:13.424Z,97.94
2019-03-29T02:33:13.462Z,98.22
2019-03-29T02:34:15.670Z,97.94
2019-03-29T02:35:13.540Z,97.84
2019-03-29T02:36:13.582Z,97.75
2019-03-29T02:37:13.622Z,98.22
2019-03-29T02:38:13.665Z,98.13
2019-03-29T02:39:13.717Z,97.56
2019-03-29T02:40:13.783Z,97.56
2019-03-29T02:41:13.782Z,97.65
2019-03-29T02:42:14.799Z,97.27
2019-03-29T02:43:13.867Z,97.27
2019-03-29T02:44:13.905Z,97.75
2019-03-29T02:45:13.944Z,97.56
2019-03-29T02:46:13.986Z,97.56
2019-03-29T02:47:14.026Z,97.65
2019-03-29T02:48:14.066Z,97.56
2019-03-29T02:49:14.107Z,98.22
2019-03-29T02:50:14.166Z,98.22
2019-03-29T02:51:14.187Z,98.41
2019-03-29T02:52:14.235Z,97.94
2019-03-29T02:53:14.273Z,97.94
2019-03-29T02:54:14.473Z,97.27
2019-03-29T02:55:14.350Z,97.36
2019-03-29T02:56:14.390Z,98.32
2019-03-29T02:57:14.441Z,98.32
2019-03-29T02:58:14.472Z,98.22
2019-03-29T02:59:14.525Z,98.22
2019-03-29T03:00:14.554Z,98.70
2019-03-29T03:01:14.593Z,98.32
2019-03-29T03:02:14.647Z,98.22
2019-03-29T03:03:14.674Z,98.13
2019-03-29T03:04:14.720Z,98.13
2019-03-29T03:05:14.756Z,98.32
2019-03-29T03:06:14.796Z,98.22
2019-03-29T03:07:14.868Z,98.03
2019-03-29T03:08:14.879Z,98.22
2019-03-29T03:09:15.061Z,98.22
2019-03-29T03:10:14.958Z,98.13
2019-03-29T03:11:14.997Z,98.13
2019-03-29T03:12:15.037Z,98.32
2019-03-29T03:13:15.078Z,97.94
2019-03-29T03:14:15.120Z,97.94
2019-03-29T03:15:15.164Z,97.75
2019-03-29T03:16:15.199Z,97.75
2019-03-29T03:17:15.243Z,97.84
2019-03-29T03:18:15.281Z,97.84
2019-03-29T03:19:15.321Z,97.84
2019-03-29T03:20:15.943Z,98.13
2019-03-29T03:21:15.404Z,98.13
2019-03-29T03:22:15.442Z,98.22
2019-03-29T03:23:15.482Z,98.13
2019-03-29T03:24:15.526Z,98.32
2019-03-29T03:25:15.719Z,98.60
2019-03-29T03:26:15.604Z,98.32
2019-03-29T03:27:15.646Z,98.51
2019-03-29T03:28:15.686Z,97.94
2019-03-29T03:29:15.725Z,98.41
2019-03-29T03:30:15.767Z,98.13
2019-03-29T03:31:15.805Z,98.22
2019-03-29T03:32:15.855Z,97.46
2019-03-29T03:33:15.905Z,98.13
2019-03-29T03:34:15.930Z,97.84
2019-03-29T03:35:15.976Z,98.60
2019-03-29T03:36:16.009Z,98.60
2019-03-29T03:37:16.051Z,98.60
2019-03-29T03:38:16.090Z,98.32
2019-03-29T03:39:30.807Z,98.08
2019-03-29T03:40:16.169Z,97.84
2019-03-29T03:41:16.209Z,98.03
2019-03-29T03:42:16.258Z,98.32
2019-03-29T03:43:16.290Z,98.32
2019-03-29T03:44:16.352Z,98.41
2019-03-29T03:45:16.370Z,98.13
2019-03-29T03:46:16.414Z,98.32
2019-03-29T03:47:16.454Z,98.22
2019-03-29T03:48:16.491Z,98.27
2019-03-29T03:49:16.535Z,98.46
2019-03-29T03:50:16.572Z,98.65
2019-03-29T03:51:16.620Z,98.51
2019-03-29T03:52:16.656Z,98.27
2019-03-29T03:53:16.715Z,98.84
2019-03-29T03:54:16.734Z,98.18
2019-03-29T03:55:16.776Z,98.36
2019-03-29T03:56:16.815Z,98.36
2019-03-29T03:57:16.979Z,98.94
2019-03-29T03:58:16.907Z,98.65
2019-03-29T03:59:16.936Z,98.46
2019-03-29T04:00:16.979Z,98.46
2019-03-29T04:01:17.082Z,98.18
2019-03-29T04:02:17.065Z,98.27
2019-03-29T04:03:17.116Z,98.46
2019-03-29T04:04:17.136Z,98.84
2019-03-29T04:05:17.189Z,98.36
2019-03-29T04:06:17.222Z,98.65
2019-03-29T04:07:17.259Z,98.65
2019-03-29T04:08:17.401Z,98.46
2019-03-29T04:09:17.336Z,98.46
2019-03-29T04:10:17.375Z,98.55
2019-03-29T04:11:17.530Z,98.46
2019-03-29T04:12:17.455Z,98.36
2019-03-29T04:13:17.504Z,98.27
2019-03-29T04:14:17.537Z,98.46
2019-03-29T04:15:17.575Z,98.18
2019-03-29T04:16:17.625Z,98.36
2019-03-29T04:17:17.668Z,98.08
2019-03-29T04:18:17.712Z,98.55
2019-03-29T04:19:17.737Z,98.36
2019-03-29T04:20:17.779Z,98.27
2019-03-29T04:21:17.817Z,98.27
2019-03-29T04:22:17.858Z,98.55
2019-03-29T04:23:17.897Z,98.27
2019-03-29T04:24:17.941Z,98.55
2019-03-29T04:25:17.979Z,98.27
2019-03-29T04:26:18.025Z,98.55
2019-03-29T04:27:18.059Z,98.84
2019-03-29T04:28:18.097Z,98.55
2019-03-29T04:29:18.138Z,98.36
2019-03-29T04:30:18.178Z,98.46
2019-03-29T04:31:18.235Z,98.84
2019-03-29T04:32:18.261Z,98.46
2019-03-29T04:33:18.302Z,98.55
2019-03-29T04:34:18.342Z,98.65
2019-03-29T04:35:18.380Z,98.27
2019-03-29T04:36:18.436Z,98.27
2019-03-29T04:37:18.459Z,98.55
2019-03-29T04:38:18.499Z,98.27
2019-03-29T04:39:18.539Z,98.55
2019-03-29T04:40:18.582Z,98.55
2019-03-29T04:41:18.622Z,98.84
2019-03-29T04:42:18.660Z,98.27
2019-03-29T04:43:18.711Z,98.55
2019-03-29T04:44:18.744Z,98.18
2019-03-29T04:45:18.780Z,98.74
2019-03-29T04:46:18.822Z,98.84
2019-03-29T04:47:18.861Z,98.74
2019-03-29T04:48:18.900Z,98.65
2019-03-29T04:49:18.939Z,98.65
2019-03-29T04:50:18.980Z,98.84
2019-03-29T04:51:19.020Z,99.03
2019-03-29T04:52:19.062Z,98.65
2019-03-29T04:53:19.100Z,98.84
2019-03-29T04:54:19.152Z,98.84
2019-03-29T04:55:19.185Z,99.13
2019-03-29T04:56:19.220Z,98.74
2019-03-29T04:57:19.261Z,98.84
2019-03-29T04:58:19.300Z,99.03
2019-03-29T04:59:19.341Z,98.84
2019-03-29T05:00:19.383Z,98.84
2019-03-29T05:01:19.426Z,99.03
2019-03-29T05:02:19.464Z,98.65
2019-03-29T05:03:19.508Z,98.84
2019-03-29T05:04:19.544Z,98.74
2019-03-29T05:05:19.582Z,98.74
2019-03-29T05:06:19.621Z,98.74
2019-03-29T05:07:19.668Z,98.84
2019-03-29T05:08:19.700Z,98.74
2019-03-29T05:09:19.756Z,98.94
2019-03-29T05:10:21.419Z,98.08
2019-03-29T05:11:19.824Z,98.74
2019-03-29T05:12:19.860Z,99.03
2019-03-29T05:13:19.900Z,98.94
2019-03-29T05:14:19.941Z,98.84
2019-03-29T05:15:20.070Z,98.84
2019-03-29T05:16:20.028Z,98.84
2019-03-29T05:17:20.061Z,99.13
2019-03-29T05:18:20.101Z,99.03
2019-03-29T05:19:20.140Z,99.03
2019-03-29T05:20:20.182Z,98.74
2019-03-29T05:21:20.220Z,98.65
2019-03-29T05:22:20.262Z,99.03
2019-03-29T05:23:20.305Z,98.94
2019-03-29T05:24:20.353Z,98.94
2019-03-29T05:25:20.432Z,98.65
2019-03-29T05:26:20.428Z,99.03
2019-03-29T05:27:20.461Z,99.03
2019-03-29T05:28:20.501Z,99.13
2019-03-29T05:29:20.543Z,98.65
2019-03-29T05:30:20.582Z,99.03
2019-03-29T05:31:20.625Z,98.65
2019-03-29T05:32:20.664Z,98.18
2019-03-29T05:33:20.706Z,98.84
2019-03-29T05:34:20.744Z,98.46
2019-03-29T05:35:20.784Z,98.65
2019-03-29T05:36:20.822Z,98.84
2019-03-29T05:37:20.867Z,98.36
2019-03-29T05:38:20.907Z,98.46
2019-03-29T05:39:20.942Z,98.08
2019-03-29T05:40:34.034Z,98.55
2019-03-29T05:41:21.023Z,98.18
2019-03-29T05:42:21.062Z,98.55
2019-03-29T05:43:21.110Z,98.89
2019-03-29T05:44:21.144Z,98.32
2019-03-29T05:45:21.183Z,98.32
2019-03-29T05:46:21.224Z,98.32
2019-03-29T05:47:21.272Z,98.27
2019-03-29T05:48:21.311Z,98.41
2019-03-29T05:49:21.356Z,98.36
2019-03-29T05:50:21.390Z,98.41
2019-03-29T05:51:21.436Z,98.60
2019-03-29T05:52:21.467Z,98.51
2019-03-29T05:53:21.523Z,97.94
2019-03-29T05:54:21.546Z,98.51
2019-03-29T05:55:32.056Z,98.41
2019-03-29T05:56:21.633Z,98.32
2019-03-29T05:57:21.668Z,97.94
2019-03-29T05:58:21.706Z,98.32
2019-03-29T05:59:21.765Z,97.94
2019-03-29T06:00:21.789Z,98.22
2019-03-29T06:01:21.880Z,98.13
2019-03-29T06:02:21.868Z,98.03
2019-03-29T06:03:21.912Z,97.94
2019-03-29T06:04:21.951Z,98.32
2019-03-29T06:05:21.988Z,97.75
2019-03-29T06:06:22.031Z,97.94
2019-03-29T06:07:22.070Z,97.94
2019-03-29T06:08:22.110Z,97.80
2019-03-29T06:09:22.149Z,97.99
2019-03-29T06:10:22.191Z,98.18
2019-03-29T06:11:22.237Z,97.61
2019-03-29T06:12:22.271Z,97.41
2019-03-29T06:13:22.314Z,97.51
2019-03-29T06:14:22.352Z,97.51
2019-03-29T06:15:22.393Z,97.80
2019-03-29T06:16:22.432Z,97.51
2019-03-29T06:17:22.474Z,97.13
2019-03-29T06:18:22.515Z,97.03
2019-03-29T06:19:22.556Z,97.17
2019-03-29T06:20:22.596Z,96.70
2019-03-29T06:21:22.637Z,96.61
2019-03-29T06:22:22.679Z,96.41
2019-03-29T06:23:22.718Z,96.80
2019-03-29T06:24:22.760Z,96.80
2019-03-29T06:25:22.801Z,96.80
2019-03-29T06:26:22.840Z,96.46
2019-03-29T06:27:22.881Z,96.41
2019-03-29T06:28:22.923Z,96.80
2019-03-29T06:29:22.964Z,96.65
2019-03-29T06:30:23.005Z,97.03
2019-03-29T06:31:23.046Z,97.03
2019-03-29T06:32:23.087Z,97.32
2019-03-29T06:33:23.127Z,97.70
2019-03-29T06:34:23.185Z,97.89
2019-03-29T06:35:23.209Z,97.51
2019-03-29T06:36:23.258Z,97.89
2019-03-29T06:37:23.303Z,97.80
2019-03-29T06:38:23.331Z,98.13
2019-03-29T06:39:23.371Z,97.36
2019-03-29T06:40:23.424Z,97.27
2019-03-29T06:41:23.456Z,98.32
2019-03-29T06:42:23.497Z,98.03
2019-03-29T06:43:23.533Z,97.36
2019-03-29T06:44:23.574Z,97.75
2019-03-29T06:45:23.619Z,98.32
2019-03-29T06:46:23.663Z,98.03
2019-03-29T06:47:23.696Z,98.41
2019-03-29T06:48:23.747Z,98.13
2019-03-29T06:49:23.779Z,98.32
2019-03-29T06:50:23.818Z,98.27
2019-03-29T06:51:23.859Z,97.99
2019-03-29T06:52:23.905Z,98.27
2019-03-29T06:53:23.957Z,98.18
2019-03-29T06:54:23.981Z,97.51
2019-03-29T06:55:24.022Z,97.51
2019-03-29T06:56:24.064Z,97.80
2019-03-29T06:57:24.103Z,97.70
2019-03-29T06:58:24.144Z,97.70
2019-03-29T06:59:24.187Z,97.80
2019-03-29T07:00:24.232Z,97.51
2019-03-29T07:01:24.276Z,97.66
2019-03-29T07:02:24.308Z,96.75
2019-03-29T07:03:24.350Z,96.89
2019-03-29T07:04:24.389Z,97.08
2019-03-29T07:05:24.434Z,97.17
2019-03-29T07:06:24.471Z,97.17
2019-03-29T07:07:24.509Z,97.17
2019-03-29T07:08:24.556Z,97.08
2019-03-29T07:09:24.643Z,97.17
2019-03-29T07:10:24.634Z,97.03
2019-03-29T07:11:24.673Z,96.89
2019-03-29T07:12:24.714Z,97.61
2019-03-29T07:13:24.760Z,97.85
2019-03-29T07:14:24.811Z,97.85
2019-03-29T07:15:24.836Z,97.41
2019-03-29T07:16:24.893Z,97.61
2019-03-29T07:17:24.919Z,97.08
2019-03-29T07:18:24.960Z,97.03
2019-03-29T07:19:25.000Z,97.08
2019-03-29T07:20:25.042Z,97.41
2019-03-29T07:21:25.082Z,97.17
2019-03-29T07:22:25.124Z,97.08
2019-03-29T07:23:25.179Z,97.17
2019-03-29T07:24:25.206Z,97.08
2019-03-29T07:25:25.247Z,97.27
2019-03-29T07:26:25.289Z,97.17
2019-03-29T07:27:25.326Z,96.70
2019-03-29T07:28:25.370Z,96.98
2019-03-29T07:29:25.410Z,96.22
2019-03-29T07:30:25.457Z,97.08
2019-03-29T07:31:25.493Z,96.22
2019-03-29T07:32:25.537Z,96.32
2019-03-29T07:33:25.591Z,96.32
2019-03-29T07:34:25.614Z,96.51
2019-03-29T07:35:25.712Z,96.51
2019-03-29T07:36:25.705Z,96.61
2019-03-29T07:37:25.739Z,96.32
2019-03-29T07:38:25.780Z,96.32
2019-03-29T07:39:25.823Z,96.22
2019-03-29T07:40:25.862Z,96.51
2019-03-29T07:41:32.223Z,96.89
2019-03-29T07:42:25.952Z,96.32
2019-03-29T07:43:25.996Z,96.89
2019-03-29T07:44:26.030Z,96.89
2019-03-29T07:45:26.067Z,96.32
2019-03-29T07:46:26.109Z,96.41
2019-03-29T07:47:26.149Z,96.32
2019-03-29T07:48:26.193Z,96.61
2019-03-29T07:49:26.235Z,96.89
2019-03-29T07:50:26.274Z,96.80
2019-03-29T07:51:26.322Z,96.80
2019-03-29T07:52:26.355Z,96.80
2019-03-29T07:53:26.397Z,96.41
2019-03-29T07:54:26.453Z,96.89
2019-03-29T07:55:26.479Z,96.80
2019-03-29T07:56:26.524Z,96.70
2019-03-29T07:57:26.564Z,96.51
2019-03-29T07:58:26.605Z,96.80
2019-03-29T07:59:26.645Z,96.61
2019-03-29T08:00:26.700Z,96.89
2019-03-29T08:01:26.725Z,96.32
2019-03-29T08:02:26.771Z,96.66
2019-03-29T08:03:26.816Z,95.79
2019-03-29T08:04:26.854Z,95.98
2019-03-29T08:05:26.898Z,95.79
2019-03-29T08:06:26.933Z,96.08
2019-03-29T08:07:28.087Z,95.79
2019-03-29T08:08:32.260Z,95.89
2019-03-29T08:09:27.372Z,95.89
2019-03-29T08:10:30.980Z,96.08
2019-03-29T08:11:28.364Z,95.89
2019-03-29T08:12:27.200Z,95.41
2019-03-29T08:13:27.220Z,95.03
2019-03-29T08:14:27.261Z,95.32
2019-03-29T08:15:27.320Z,95.32
2019-03-29T08:16:27.345Z,94.56
2019-03-29T08:17:27.388Z,94.79
2019-03-29T08:18:27.431Z,94.41
2019-03-29T08:19:27.479Z,94.12
2019-03-29T08:20:44.403Z,94.51
2019-03-29T08:21:27.558Z,93.84
2019-03-29T08:22:27.592Z,93.55
2019-03-29T08:23:28.904Z,93.26
2019-03-29T08:24:27.675Z,93.46
2019-03-29T08:25:27.715Z,93.36
2019-03-29T08:26:27.774Z,93.65
2019-03-29T08:27:27.864Z,93.17
2019-03-29T08:28:27.848Z,93.74
2019-03-29T08:29:31.129Z,92.83
2019-03-29T08:30:27.925Z,93.02
2019-03-29T08:31:27.966Z,93.31
2019-03-29T08:32:28.013Z,92.16
2019-03-29T08:33:28.048Z,91.11
2019-03-29T08:34:28.101Z,91.21
2019-03-29T08:35:28.135Z,89.53
2019-03-29T08:36:28.173Z,89.15
2019-03-29T08:37:28.224Z,88.39
2019-03-29T08:38:28.257Z,88.34
2019-03-29T08:39:28.636Z,87.57
2019-03-29T08:40:28.341Z,88.34
2019-03-29T08:41:28.391Z,87.38
2019-03-29T08:42:28.434Z,86.61
2019-03-29T08:43:28.468Z,86.52
2019-03-29T08:44:28.524Z,85.80
2019-03-29T08:45:28.558Z,85.89
2019-03-29T08:46:28.593Z,85.99
2019-03-29T08:47:28.641Z,86.28
2019-03-29T08:48:28.679Z,85.46
2019-03-29T08:49:28.721Z,83.26
2019-03-29T08:50:28.763Z,81.63
2019-03-29T08:51:28.805Z,81.15
2019-03-29T08:52:28.854Z,81.15
2019-03-29T08:53:28.893Z,81.54
2019-03-29T08:54:28.942Z,81.67
2019-03-29T08:55:28.979Z,81.67
2019-03-29T08:56:29.096Z,82.63
2019-03-29T08:57:29.072Z,81.57
2019-03-29T08:58:29.112Z,81.29
2019-03-29T08:59:29.155Z,80.81
2019-03-29T09:00:29.197Z,80.90
2019-03-29T09:01:29.235Z,80.85
2019-03-29T09:02:29.280Z,80.94
2019-03-29T09:03:29.320Z,79.51
2019-03-29T09:04:29.362Z,79.51
2019-03-29T09:05:29.410Z,78.93
2019-03-29T09:06:30.411Z,79.22
2019-03-29T09:07:43.547Z,79.22
2019-03-29T09:08:29.542Z,78.17
2019-03-29T09:09:29.588Z,79.22
2019-03-29T09:10:29.624Z,79.60
2019-03-29T09:11:29.672Z,79.22
2019-03-29T09:12:29.711Z,80.56
2019-03-29T09:13:29.754Z,80.47
2019-03-29T09:14:31.360Z,79.22
2019-03-29T09:15:29.857Z,78.64
2019-03-29T09:16:29.883Z,78.07
2019-03-29T09:17:29.930Z,77.53
2019-03-29T09:18:29.982Z,77.06
2019-03-29T09:19:30.018Z,77.53
2019-03-29T09:20:30.059Z,78.30
2019-03-29T09:21:30.103Z,78.49
2019-03-29T09:22:30.149Z,77.63
2019-03-29T09:23:30.460Z,76.04
2019-03-29T09:24:30.236Z,76.90
2019-03-29T09:25:30.282Z,76.71
2019-03-29T09:26:30.326Z,76.42
2019-03-29T09:27:31.970Z,76.75
2019-03-29T09:28:32.848Z,76.46
2019-03-29T09:29:30.455Z,77.48
2019-03-29T09:30:30.502Z,77.48
2019-03-29T09:31:30.543Z,76.14
2019-03-29T09:32:30.651Z,77.38
2019-03-29T09:33:30.643Z,76.17
2019-03-29T09:34:30.739Z,76.27
2019-03-29T09:35:30.720Z,76.27
2019-03-29T09:36:30.767Z,74.44
2019-03-29T09:37:30.810Z,73.52
2019-03-29T09:38:30.852Z,71.80
2019-03-29T09:39:30.898Z,72.37
2019-03-29T09:40:30.945Z,71.41
2019-03-29T09:41:30.992Z,70.23
2019-03-29T09:42:31.049Z,71.37
2019-03-29T09:43:31.076Z,72.05
2019-03-29T09:44:31.130Z,72.24
2019-03-29T09:45:31.165Z,72.72
2019-03-29T09:46:31.210Z,73.10
2019-03-29T09:47:38.274Z,73.20
2019-03-29T09:48:34.456Z,73.68
2019-03-29T09:49:31.345Z,72.43
2019-03-29T09:50:31.396Z,72.63
2019-03-29T09:51:31.437Z,73.58
2019-03-29T09:52:31.483Z,73.49
2019-03-29T09:53:31.543Z,73.97
2019-03-29T09:54:31.569Z,74.16
2019-03-29T09:55:31.621Z,73.58
2019-03-29T09:56:38.609Z,73.62
2019-03-29T09:57:37.142Z,73.87
2019-03-29T09:58:31.750Z,71.95
2019-03-29T09:59:31.794Z,71.37
2019-03-29T10:00:31.839Z,70.99
2019-03-29T10:01:32.058Z,71.28
2019-03-29T10:02:31.928Z,71.86
2019-03-29T10:03:31.973Z,71.86
2019-03-29T10:04:32.016Z,72.14
2019-03-29T10:05:32.066Z,72.18
2019-03-29T10:06:32.109Z,71.03
2019-03-29T10:07:32.154Z,70.26
2019-03-29T10:08:32.201Z,69.97
2019-03-29T10:09:32.243Z,70.03
2019-03-29T10:10:34.511Z,70.55
2019-03-29T10:11:32.331Z,70.36
2019-03-29T10:12:43.221Z,70.07
2019-03-29T10:13:32.423Z,70.74
2019-03-29T10:14:33.663Z,71.03
2019-03-29T10:15:32.522Z,71.03
2019-03-29T10:16:32.557Z,70.17
2019-03-29T10:17:32.606Z,70.36
2019-03-29T10:18:32.647Z,71.80
2019-03-29T10:19:32.691Z,71.80
2019-03-29T10:20:32.740Z,70.26
2019-03-29T10:21:34.262Z,69.49
2019-03-29T10:22:32.831Z,69.68
2019-03-29T10:23:32.873Z,69.93
2019-03-29T10:24:32.916Z,69.87
2019-03-29T10:25:32.962Z,70.17
2019-03-29T10:26:33.007Z,70.17
2019-03-29T10:27:33.059Z,70.07
2019-03-29T10:28:33.095Z,70.36
2019-03-29T10:29:33.142Z,70.64
2019-03-29T10:30:33.195Z,71.22
2019-03-29T10:31:33.232Z,71.12
2019-03-29T10:32:33.276Z,70.07
2019-03-29T10:33:33.323Z,70.07
2019-03-29T10:34:33.369Z,71.12
2019-03-29T10:35:33.463Z,71.41
2019-03-29T10:36:33.456Z,70.26
2019-03-29T10:37:33.503Z,70.36
2019-03-29T10:38:33.551Z,70.36
2019-03-29T10:39:35.593Z,68.82
2019-03-29T10:40:33.648Z,69.11
2019-03-29T10:41:34.500Z,69.40
2019-03-29T10:42:33.736Z,71.61
2019-03-29T10:43:33.778Z,71.03
2019-03-29T10:44:33.821Z,71.31
2019-03-29T10:45:39.499Z,71.41
2019-03-29T10:46:33.992Z,70.68
2019-03-29T10:47:42.976Z,69.14
2019-03-29T10:48:33.997Z,69.14
2019-03-29T10:49:34.043Z,69.05
2019-03-29T10:50:34.089Z,69.91
2019-03-29T10:51:34.134Z,69.14
2019-03-29T10:52:34.179Z,69.43
2019-03-29T10:53:34.223Z,69.34
2019-03-29T10:54:34.268Z,69.72
2019-03-29T10:55:34.313Z,69.43
2019-03-29T10:56:34.790Z,69.05
2019-03-29T10:57:34.403Z,70.10
2019-03-29T10:58:34.449Z,69.05
2019-03-29T10:59:34.501Z,69.05
2019-03-29T11:00:34.541Z,69.05
2019-03-29T11:01:34.600Z,70.29
2019-03-29T11:02:34.631Z,70.10
2019-03-29T11:03:34.674Z,69.53
2019-03-29T11:04:34.728Z,70.10
2019-03-29T11:05:34.769Z,69.53
2019-03-29T11:06:34.811Z,70.49
2019-03-29T11:07:34.856Z,71.93
2019-03-29T11:08:34.900Z,72.02
2019-03-29T11:09:37.029Z,71.12
2019-03-29T11:10:34.994Z,70.03
2019-03-29T11:11:35.036Z,71.76
2019-03-29T11:12:35.082Z,73.10
2019-03-29T11:13:35.129Z,73.58
2019-03-29T11:14:35.183Z,72.05
2019-03-29T11:15:35.227Z,71.28
2019-03-29T11:16:35.270Z,70.32
2019-03-29T11:17:35.308Z,70.42
2019-03-29T11:18:35.355Z,70.90
2019-03-29T11:19:35.396Z,71.37
2019-03-29T11:20:35.443Z,73.49
2019-03-29T11:21:35.498Z,73.30
2019-03-29T11:22:35.535Z,72.72
2019-03-29T11:23:35.579Z,71.19
2019-03-29T11:24:35.620Z,71.95
2019-03-29T11:25:35.667Z,71.72
2019-03-29T11:26:35.714Z,71.92
2019-03-29T11:27:35.759Z,72.49
2019-03-29T11:28:35.804Z,73.55
2019-03-29T11:29:35.853Z,73.16
2019-03-29T11:30:42.030Z,74.02
2019-03-29T11:31:35.935Z,73.26
2019-03-29T11:32:35.980Z,72.88
2019-03-29T11:33:36.042Z,72.68
2019-03-29T11:34:36.070Z,72.43
2019-03-29T11:35:36.112Z,72.59
2019-03-29T11:36:36.159Z,72.68
2019-03-29T11:37:36.214Z,73.68
2019-03-29T11:38:36.253Z,72.72
2019-03-29T11:39:36.290Z,73.07
2019-03-29T11:40:36.338Z,72.68
2019-03-29T11:41:36.383Z,71.86
2019-03-29T11:42:36.426Z,71.47
2019-03-29T11:43:36.472Z,71.92
2019-03-29T11:44:36.516Z,72.30
2019-03-29T11:45:36.560Z,72.39
2019-03-29T11:46:36.603Z,72.49
2019-03-29T11:47:36.647Z,71.66
2019-03-29T11:48:36.694Z,73.10
2019-03-29T11:49:36.739Z,74.06
2019-03-29T11:50:36.782Z,72.53
2019-03-29T11:51:36.826Z,72.33
2019-03-29T11:52:36.872Z,71.92
2019-03-29T11:53:36.916Z,74.12
2019-03-29T11:54:36.967Z,73.16
2019-03-29T11:55:37.010Z,73.16
2019-03-29T11:56:37.055Z,76.04
2019-03-29T11:57:37.091Z,75.18
2019-03-29T11:58:37.137Z,74.41
2019-03-29T11:59:39.975Z,74.79
2019-03-29T12:00:37.234Z,75.27
2019-03-29T12:01:37.282Z,73.65
2019-03-29T12:02:37.314Z,74.02
2019-03-29T12:03:37.360Z,73.70
2019-03-29T12:04:37.417Z,74.85
2019-03-29T12:05:37.459Z,74.85
2019-03-29T12:06:37.499Z,75.71
2019-03-29T12:07:37.537Z,75.33
2019-03-29T12:08:37.588Z,75.14
2019-03-29T12:09:37.623Z,74.85
2019-03-29T12:10:37.674Z,74.57
2019-03-29T12:11:37.721Z,74.47
2019-03-29T12:12:37.756Z,74.76
2019-03-29T12:13:41.376Z,75.43
2019-03-29T12:14:37.853Z,74.85
2019-03-29T12:15:37.889Z,75.33
2019-03-29T12:16:37.932Z,75.62
2019-03-29T12:17:37.980Z,76.32
2019-03-29T12:18:38.020Z,75.08
2019-03-29T12:19:38.065Z,74.76
2019-03-29T12:20:38.110Z,73.13
2019-03-29T12:21:38.152Z,75.52
2019-03-29T12:22:38.199Z,76.39
2019-03-29T12:23:38.247Z,76.19
2019-03-29T12:24:38.285Z,75.23
2019-03-29T12:25:38.329Z,74.76
2019-03-29T12:26:38.372Z,74.76
2019-03-29T12:27:38.425Z,75.18
2019-03-29T12:28:38.478Z,75.14
2019-03-29T12:29:38.504Z,73.93
2019-03-29T12:30:38.550Z,73.74
2019-03-29T12:31:38.594Z,74.41
2019-03-29T12:32:38.641Z,74.69
2019-03-29T12:33:38.681Z,74.37
2019-03-29T12:34:38.733Z,74.89
2019-03-29T12:35:38.770Z,74.22
2019-03-29T12:36:38.813Z,73.22
2019-03-29T12:37:38.864Z,73.13
2019-03-29T12:38:38.903Z,72.94
2019-03-29T12:39:38.941Z,72.55
2019-03-29T12:40:38.986Z,73.51
2019-03-29T12:41:39.034Z,74.08
2019-03-29T12:42:39.074Z,74.37
2019-03-29T12:43:39.118Z,74.85
2019-03-29T12:44:39.163Z,75.81
2019-03-29T12:45:39.214Z,75.81
2019-03-29T12:46:39.250Z,75.43
2019-03-29T12:47:39.301Z,75.04
2019-03-29T12:48:39.343Z,75.23
2019-03-29T12:49:39.380Z,74.95
2019-03-29T12:50:39.426Z,74.18
2019-03-29T12:51:39.467Z,74.76
2019-03-29T12:52:39.512Z,75.81